sensor_id;sensor_type;location;lat;lon;timestamp;temperature;humidity
17415;DHT22;8825;48.086;16.426;2023-08-30T00:01:35;18.20;69.80
17415;DHT22;8825;48.086;16.426;2023-08-30T00:04:02;18.20;69.80
17415;DHT22;8825;48.086;16.426;2023-08-30T00:06:30;18.20;69.80
17415;DHT22;8825;48.086;16.426;2023-08-30T00:08:58;18.20;69.80
17415;DHT22;8825;48.086;16.426;2023-08-30T00:11:26;18.20;69.90
17415;DHT22;8825;48.086;16.426;2023-08-30T00:13:57;18.20;69.70
17415;DHT22;8825;48.086;16.426;2023-08-30T00:16:23;18.20;69.80
17415;DHT22;8825;48.086;16.426;2023-08-30T00:18:50;18.20;69.80
17415;DHT22;8825;48.086;16.426;2023-08-30T00:21:18;18.10;69.80
17415;DHT22;8825;48.086;16.426;2023-08-30T00:23:45;18.10;70.60
17415;DHT22;8825;48.086;16.426;2023-08-30T00:26:13;18.10;69.80
17415;DHT22;8825;48.086;16.426;2023-08-30T00:28:40;18.10;69.80
17415;DHT22;8825;48.086;16.426;2023-08-30T00:31:08;18.10;69.80
17415;DHT22;8825;48.086;16.426;2023-08-30T00:33:35;18.10;70.20
17415;DHT22;8825;48.086;16.426;2023-08-30T00:36:04;18.20;70.60
17415;DHT22;8825;48.086;16.426;2023-08-30T00:38:33;18.20;69.70
17415;DHT22;8825;48.086;16.426;2023-08-30T00:41:01;18.20;69.80
17415;DHT22;8825;48.086;16.426;2023-08-30T00:43:28;18.20;69.80
17415;DHT22;8825;48.086;16.426;2023-08-30T00:45:56;18.20;69.80
17415;DHT22;8825;48.086;16.426;2023-08-30T00:48:24;18.20;69.70
17415;DHT22;8825;48.086;16.426;2023-08-30T00:50:52;18.20;69.60
17415;DHT22;8825;48.086;16.426;2023-08-30T00:53:19;18.20;69.60
17415;DHT22;8825;48.086;16.426;2023-08-30T00:55:47;18.20;69.50
17415;DHT22;8825;48.086;16.426;2023-08-30T00:58:15;18.20;69.50
17415;DHT22;8825;48.086;16.426;2023-08-30T01:00:42;18.30;69.50
17415;DHT22;8825;48.086;16.426;2023-08-30T01:03:10;18.20;69.60
17415;DHT22;8825;48.086;16.426;2023-08-30T01:05:37;18.30;69.50
17415;DHT22;8825;48.086;16.426;2023-08-30T01:08:05;18.20;69.40
17415;DHT22;8825;48.086;16.426;2023-08-30T01:13:15;18.30;69.50
17415;DHT22;8825;48.086;16.426;2023-08-30T01:15:45;18.30;70.40
17415;DHT22;8825;48.086;16.426;2023-08-30T01:18:13;18.30;69.50
17415;DHT22;8825;48.086;16.426;2023-08-30T01:20:42;18.30;69.50
17415;DHT22;8825;48.086;16.426;2023-08-30T01:28:31;18.20;69.40
17415;DHT22;8825;48.086;16.426;2023-08-30T01:31:00;18.20;69.40
17415;DHT22;8825;48.086;16.426;2023-08-30T01:33:30;18.30;69.50
17415;DHT22;8825;48.086;16.426;2023-08-30T01:35:59;18.30;69.50
17415;DHT22;8825;48.086;16.426;2023-08-30T01:38:29;18.20;69.50
17415;DHT22;8825;48.086;16.426;2023-08-30T01:40:59;18.30;69.50
17415;DHT22;8825;48.086;16.426;2023-08-30T01:43:28;18.20;69.50
17415;DHT22;8825;48.086;16.426;2023-08-30T01:45:58;18.20;70.30
17415;DHT22;8825;48.086;16.426;2023-08-30T01:48:32;18.20;69.60
17415;DHT22;8825;48.086;16.426;2023-08-30T01:51:00;18.30;69.70
17415;DHT22;8825;48.086;16.426;2023-08-30T01:53:28;18.30;69.60
17415;DHT22;8825;48.086;16.426;2023-08-30T01:55:56;18.30;69.60
17415;DHT22;8825;48.086;16.426;2023-08-30T01:58:23;18.30;69.60
17415;DHT22;8825;48.086;16.426;2023-08-30T02:00:51;18.30;69.60
17415;DHT22;8825;48.086;16.426;2023-08-30T02:03:18;18.30;69.70
17415;DHT22;8825;48.086;16.426;2023-08-30T02:06:04;18.30;69.70
17415;DHT22;8825;48.086;16.426;2023-08-30T02:08:38;18.30;69.90
17415;DHT22;8825;48.086;16.426;2023-08-30T02:11:07;18.30;69.90
17415;DHT22;8825;48.086;16.426;2023-08-30T02:13:36;18.20;70.70
17415;DHT22;8825;48.086;16.426;2023-08-30T02:16:05;18.20;70.00
17415;DHT22;8825;48.086;16.426;2023-08-30T02:18:36;18.20;70.10
17415;DHT22;8825;48.086;16.426;2023-08-30T02:21:04;18.20;71.00
17415;DHT22;8825;48.086;16.426;2023-08-30T02:23:31;18.30;70.30
17415;DHT22;8825;48.086;16.426;2023-08-30T02:25:59;18.20;70.30
17415;DHT22;8825;48.086;16.426;2023-08-30T02:28:29;18.20;70.40
17415;DHT22;8825;48.086;16.426;2023-08-30T02:30:56;18.20;70.50
17415;DHT22;8825;48.086;16.426;2023-08-30T02:33:24;18.20;70.60
17415;DHT22;8825;48.086;16.426;2023-08-30T02:35:52;18.20;70.60
17415;DHT22;8825;48.086;16.426;2023-08-30T02:38:20;18.20;70.70
17415;DHT22;8825;48.086;16.426;2023-08-30T02:40:47;18.20;70.80
17415;DHT22;8825;48.086;16.426;2023-08-30T02:43:15;18.20;70.80
17415;DHT22;8825;48.086;16.426;2023-08-30T02:45:43;18.20;70.80
17415;DHT22;8825;48.086;16.426;2023-08-30T02:48:10;18.20;70.80
17415;DHT22;8825;48.086;16.426;2023-08-30T02:50:38;18.20;70.80
17415;DHT22;8825;48.086;16.426;2023-08-30T02:53:05;18.20;70.90
17415;DHT22;8825;48.086;16.426;2023-08-30T02:55:35;18.20;70.90
17415;DHT22;8825;48.086;16.426;2023-08-30T02:58:03;18.20;71.00
17415;DHT22;8825;48.086;16.426;2023-08-30T03:00:30;18.20;71.00
17415;DHT22;8825;48.086;16.426;2023-08-30T03:02:58;18.10;71.80
17415;DHT22;8825;48.086;16.426;2023-08-30T03:05:25;18.10;71.10
17415;DHT22;8825;48.086;16.426;2023-08-30T03:07:53;18.10;71.40
17415;DHT22;8825;48.086;16.426;2023-08-30T03:10:21;18.10;71.50
17415;DHT22;8825;48.086;16.426;2023-08-30T03:12:50;18.10;71.40
17415;DHT22;8825;48.086;16.426;2023-08-30T03:15:18;18.10;71.30
17415;DHT22;8825;48.086;16.426;2023-08-30T03:17:45;18.10;71.40
17415;DHT22;8825;48.086;16.426;2023-08-30T03:20:13;18.00;72.20
17415;DHT22;8825;48.086;16.426;2023-08-30T03:22:41;18.00;71.60
17415;DHT22;8825;48.086;16.426;2023-08-30T03:25:09;18.00;71.90
17415;DHT22;8825;48.086;16.426;2023-08-30T03:27:37;18.00;71.80
17415;DHT22;8825;48.086;16.426;2023-08-30T03:30:05;18.00;71.90
17415;DHT22;8825;48.086;16.426;2023-08-30T03:32:32;18.00;72.10
17415;DHT22;8825;48.086;16.426;2023-08-30T03:35:00;18.00;72.10
17415;DHT22;8825;48.086;16.426;2023-08-30T03:37:32;18.00;71.90
17415;DHT22;8825;48.086;16.426;2023-08-30T03:40:00;18.00;71.70
17415;DHT22;8825;48.086;16.426;2023-08-30T03:42:28;18.00;71.70
17415;DHT22;8825;48.086;16.426;2023-08-30T03:44:55;18.00;71.70
17415;DHT22;8825;48.086;16.426;2023-08-30T03:47:23;18.00;71.70
17415;DHT22;8825;48.086;16.426;2023-08-30T03:49:50;18.00;71.70
17415;DHT22;8825;48.086;16.426;2023-08-30T03:52:18;18.00;71.60
17415;DHT22;8825;48.086;16.426;2023-08-30T03:54:45;18.00;71.60
17415;DHT22;8825;48.086;16.426;2023-08-30T03:57:13;18.00;71.60
17415;DHT22;8825;48.086;16.426;2023-08-30T03:59:40;18.00;71.60
17415;DHT22;8825;48.086;16.426;2023-08-30T04:02:08;18.00;71.50
17415;DHT22;8825;48.086;16.426;2023-08-30T04:04:35;18.00;71.40
17415;DHT22;8825;48.086;16.426;2023-08-30T04:07:03;18.00;71.40
17415;DHT22;8825;48.086;16.426;2023-08-30T04:09:30;17.90;71.40
17415;DHT22;8825;48.086;16.426;2023-08-30T04:11:58;17.90;71.30
17415;DHT22;8825;48.086;16.426;2023-08-30T04:14:27;17.90;72.20
17415;DHT22;8825;48.086;16.426;2023-08-30T04:16:54;17.90;71.30
17415;DHT22;8825;48.086;16.426;2023-08-30T04:19:22;17.90;71.30
17415;DHT22;8825;48.086;16.426;2023-08-30T04:21:49;17.90;71.30
17415;DHT22;8825;48.086;16.426;2023-08-30T04:24:17;17.90;71.30
17415;DHT22;8825;48.086;16.426;2023-08-30T04:26:44;17.90;71.30
17415;DHT22;8825;48.086;16.426;2023-08-30T04:29:14;17.90;71.30
17415;DHT22;8825;48.086;16.426;2023-08-30T04:31:43;17.90;71.20
17415;DHT22;8825;48.086;16.426;2023-08-30T04:34:11;17.90;71.20
17415;DHT22;8825;48.086;16.426;2023-08-30T04:36:38;17.90;71.20
17415;DHT22;8825;48.086;16.426;2023-08-30T04:39:06;17.90;71.20
17415;DHT22;8825;48.086;16.426;2023-08-30T04:41:33;17.90;71.10
17415;DHT22;8825;48.086;16.426;2023-08-30T04:44:01;17.90;71.10
17415;DHT22;8825;48.086;16.426;2023-08-30T04:46:28;17.90;71.20
17415;DHT22;8825;48.086;16.426;2023-08-30T04:48:56;17.90;71.20
17415;DHT22;8825;48.086;16.426;2023-08-30T04:51:26;17.90;71.10
17415;DHT22;8825;48.086;16.426;2023-08-30T04:53:54;18.00;71.00
17415;DHT22;8825;48.086;16.426;2023-08-30T04:56:22;18.00;71.00
17415;DHT22;8825;48.086;16.426;2023-08-30T04:58:49;18.00;72.00
17415;DHT22;8825;48.086;16.426;2023-08-30T05:01:17;18.00;71.10
17415;DHT22;8825;48.086;16.426;2023-08-30T05:03:45;18.10;71.00
17415;DHT22;8825;48.086;16.426;2023-08-30T05:06:12;18.10;71.00
17415;DHT22;8825;48.086;16.426;2023-08-30T05:08:42;18.10;70.80
17415;DHT22;8825;48.086;16.426;2023-08-30T05:11:09;18.20;70.90
17415;DHT22;8825;48.086;16.426;2023-08-30T05:13:37;18.20;70.80
17415;DHT22;8825;48.086;16.426;2023-08-30T05:16:05;18.20;70.80
17415;DHT22;8825;48.086;16.426;2023-08-30T05:18:33;18.20;70.80
17415;DHT22;8825;48.086;16.426;2023-08-30T05:21:00;18.30;70.80
17415;DHT22;8825;48.086;16.426;2023-08-30T05:23:30;18.30;70.80
17415;DHT22;8825;48.086;16.426;2023-08-30T05:25:58;18.30;70.70
17415;DHT22;8825;48.086;16.426;2023-08-30T05:28:26;18.40;70.80
17415;DHT22;8825;48.086;16.426;2023-08-30T05:30:54;18.40;70.70
17415;DHT22;8825;48.086;16.426;2023-08-30T05:33:21;18.40;70.60
17415;DHT22;8825;48.086;16.426;2023-08-30T05:35:49;18.40;70.50
17415;DHT22;8825;48.086;16.426;2023-08-30T05:38:16;18.40;70.20
17415;DHT22;8825;48.086;16.426;2023-08-30T05:40:44;18.50;70.30
17415;DHT22;8825;48.086;16.426;2023-08-30T05:43:11;18.50;70.20
17415;DHT22;8825;48.086;16.426;2023-08-30T05:45:39;18.50;70.20
17415;DHT22;8825;48.086;16.426;2023-08-30T05:48:06;18.50;70.20
17415;DHT22;8825;48.086;16.426;2023-08-30T05:50:34;18.60;70.20
17415;DHT22;8825;48.086;16.426;2023-08-30T05:53:21;18.60;70.20
17415;DHT22;8825;48.086;16.426;2023-08-30T05:55:49;18.70;70.00
17415;DHT22;8825;48.086;16.426;2023-08-30T05:58:16;18.80;70.00
17415;DHT22;8825;48.086;16.426;2023-08-30T06:00:44;18.80;69.80
17415;DHT22;8825;48.086;16.426;2023-08-30T06:03:12;18.80;69.60
17415;DHT22;8825;48.086;16.426;2023-08-30T06:05:40;18.80;69.60
17415;DHT22;8825;48.086;16.426;2023-08-30T06:08:07;18.90;69.50
17415;DHT22;8825;48.086;16.426;2023-08-30T06:10:36;18.90;69.40
17415;DHT22;8825;48.086;16.426;2023-08-30T06:13:03;19.00;69.20
17415;DHT22;8825;48.086;16.426;2023-08-30T06:15:31;19.00;69.10
17415;DHT22;8825;48.086;16.426;2023-08-30T06:17:59;19.00;69.60
17415;DHT22;8825;48.086;16.426;2023-08-30T06:20:27;19.00;68.70
17415;DHT22;8825;48.086;16.426;2023-08-30T06:22:54;19.00;68.60
17415;DHT22;8825;48.086;16.426;2023-08-30T06:25:22;19.10;68.40
17415;DHT22;8825;48.086;16.426;2023-08-30T06:27:58;19.10;68.30
17415;DHT22;8825;48.086;16.426;2023-08-30T06:30:28;19.20;68.40
17415;DHT22;8825;48.086;16.426;2023-08-30T06:32:58;19.20;68.20
17415;DHT22;8825;48.086;16.426;2023-08-30T06:35:26;19.30;68.90
17415;DHT22;8825;48.086;16.426;2023-08-30T06:37:54;19.30;67.90
17415;DHT22;8825;48.086;16.426;2023-08-30T06:40:22;19.30;67.90
17415;DHT22;8825;48.086;16.426;2023-08-30T06:42:49;19.40;67.60
17415;DHT22;8825;48.086;16.426;2023-08-30T06:45:17;19.40;67.20
17415;DHT22;8825;48.086;16.426;2023-08-30T06:47:44;19.40;67.90
17415;DHT22;8825;48.086;16.426;2023-08-30T06:50:12;19.50;67.00
17415;DHT22;8825;48.086;16.426;2023-08-30T06:52:39;19.60;67.00
17415;DHT22;8825;48.086;16.426;2023-08-30T06:55:07;19.60;67.00
17415;DHT22;8825;48.086;16.426;2023-08-30T06:57:34;19.60;66.80
17415;DHT22;8825;48.086;16.426;2023-08-30T07:00:02;19.70;66.80
17415;DHT22;8825;48.086;16.426;2023-08-30T07:02:31;19.80;66.60
17415;DHT22;8825;48.086;16.426;2023-08-30T07:04:59;19.80;66.20
17415;DHT22;8825;48.086;16.426;2023-08-30T07:07:26;19.80;66.10
17415;DHT22;8825;48.086;16.426;2023-08-30T07:09:54;19.80;65.70
17415;DHT22;8825;48.086;16.426;2023-08-30T07:12:22;19.80;65.60
17415;DHT22;8825;48.086;16.426;2023-08-30T07:14:49;19.80;65.50
17415;DHT22;8825;48.086;16.426;2023-08-30T07:17:17;19.90;65.20
17415;DHT22;8825;48.086;16.426;2023-08-30T07:19:44;19.90;65.10
17415;DHT22;8825;48.086;16.426;2023-08-30T07:22:12;19.90;64.80
17415;DHT22;8825;48.086;16.426;2023-08-30T07:24:39;19.90;64.70
17415;DHT22;8825;48.086;16.426;2023-08-30T07:27:07;19.90;64.50
17415;DHT22;8825;48.086;16.426;2023-08-30T07:29:35;20.00;64.50
17415;DHT22;8825;48.086;16.426;2023-08-30T07:32:02;19.90;64.40
17415;DHT22;8825;48.086;16.426;2023-08-30T07:34:30;20.00;64.30
17415;DHT22;8825;48.086;16.426;2023-08-30T07:36:57;20.00;64.00
17415;DHT22;8825;48.086;16.426;2023-08-30T07:39:25;20.00;64.00
17415;DHT22;8825;48.086;16.426;2023-08-30T07:41:52;20.00;64.00
17415;DHT22;8825;48.086;16.426;2023-08-30T07:44:20;20.00;64.10
17415;DHT22;8825;48.086;16.426;2023-08-30T07:46:47;20.10;64.10
17415;DHT22;8825;48.086;16.426;2023-08-30T07:49:15;20.20;64.00
17415;DHT22;8825;48.086;16.426;2023-08-30T07:51:43;20.30;63.70
17415;DHT22;8825;48.086;16.426;2023-08-30T07:54:11;20.40;63.20
17415;DHT22;8825;48.086;16.426;2023-08-30T07:56:38;20.50;62.50
17415;DHT22;8825;48.086;16.426;2023-08-30T07:59:06;20.50;62.30
17415;DHT22;8825;48.086;16.426;2023-08-30T08:01:33;20.60;62.20
17415;DHT22;8825;48.086;16.426;2023-08-30T08:04:01;20.70;62.00
17415;DHT22;8825;48.086;16.426;2023-08-30T08:06:29;20.70;61.70
17415;DHT22;8825;48.086;16.426;2023-08-30T08:08:56;20.80;61.60
17415;DHT22;8825;48.086;16.426;2023-08-30T08:11:25;20.90;61.50
17415;DHT22;8825;48.086;16.426;2023-08-30T08:13:52;21.00;61.20
17415;DHT22;8825;48.086;16.426;2023-08-30T08:16:20;21.10;60.60
17415;DHT22;8825;48.086;16.426;2023-08-30T08:18:47;21.10;60.30
17415;DHT22;8825;48.086;16.426;2023-08-30T08:21:15;21.10;60.10
17415;DHT22;8825;48.086;16.426;2023-08-30T08:23:43;21.20;59.90
17415;DHT22;8825;48.086;16.426;2023-08-30T08:26:10;21.30;59.70
17415;DHT22;8825;48.086;16.426;2023-08-30T08:28:38;21.40;59.40
17415;DHT22;8825;48.086;16.426;2023-08-30T08:31:06;21.40;58.90
17415;DHT22;8825;48.086;16.426;2023-08-30T08:33:34;21.40;58.40
17415;DHT22;8825;48.086;16.426;2023-08-30T08:36:02;21.30;58.40
17415;DHT22;8825;48.086;16.426;2023-08-30T08:38:29;21.30;58.50
17415;DHT22;8825;48.086;16.426;2023-08-30T08:41:05;21.40;59.20
17415;DHT22;8825;48.086;16.426;2023-08-30T08:43:33;21.40;58.60
17415;DHT22;8825;48.086;16.426;2023-08-30T08:46:03;21.40;58.50
17415;DHT22;8825;48.086;16.426;2023-08-30T08:48:36;21.50;58.60
17415;DHT22;8825;48.086;16.426;2023-08-30T08:51:03;21.40;58.30
17415;DHT22;8825;48.086;16.426;2023-08-30T08:53:31;21.40;58.30
17415;DHT22;8825;48.086;16.426;2023-08-30T08:55:59;21.40;58.00
17415;DHT22;8825;48.086;16.426;2023-08-30T08:58:28;21.40;58.00
17415;DHT22;8825;48.086;16.426;2023-08-30T09:00:56;21.40;57.80
17415;DHT22;8825;48.086;16.426;2023-08-30T09:03:23;21.40;57.80
17415;DHT22;8825;48.086;16.426;2023-08-30T09:05:52;21.40;57.80
17415;DHT22;8825;48.086;16.426;2023-08-30T09:08:20;21.30;57.70
17415;DHT22;8825;48.086;16.426;2023-08-30T09:10:48;21.30;57.60
17415;DHT22;8825;48.086;16.426;2023-08-30T09:13:17;21.30;57.70
17415;DHT22;8825;48.086;16.426;2023-08-30T09:15:46;21.30;57.70
17415;DHT22;8825;48.086;16.426;2023-08-30T09:18:17;21.20;57.60
17415;DHT22;8825;48.086;16.426;2023-08-30T09:20:45;21.20;57.70
17415;DHT22;8825;48.086;16.426;2023-08-30T09:23:20;21.20;57.80
17415;DHT22;8825;48.086;16.426;2023-08-30T09:25:55;21.20;57.90
17415;DHT22;8825;48.086;16.426;2023-08-30T09:28:23;21.20;57.80
17415;DHT22;8825;48.086;16.426;2023-08-30T09:30:51;21.20;57.90
17415;DHT22;8825;48.086;16.426;2023-08-30T09:33:32;21.10;58.00
17415;DHT22;8825;48.086;16.426;2023-08-30T09:36:00;21.10;58.10
17415;DHT22;8825;48.086;16.426;2023-08-30T09:38:28;21.10;58.20
17415;DHT22;8825;48.086;16.426;2023-08-30T09:41:05;21.10;58.20
17415;DHT22;8825;48.086;16.426;2023-08-30T09:43:33;21.20;58.30
17415;DHT22;8825;48.086;16.426;2023-08-30T09:46:04;21.30;58.20
17415;DHT22;8825;48.086;16.426;2023-08-30T09:48:32;21.40;58.20
17415;DHT22;8825;48.086;16.426;2023-08-30T09:51:03;21.40;58.20
17415;DHT22;8825;48.086;16.426;2023-08-30T09:53:33;21.60;58.10
17415;DHT22;8825;48.086;16.426;2023-08-30T09:56:03;21.70;57.90
17415;DHT22;8825;48.086;16.426;2023-08-30T09:58:31;21.80;57.90
17415;DHT22;8825;48.086;16.426;2023-08-30T10:00:59;21.80;57.70
17415;DHT22;8825;48.086;16.426;2023-08-30T10:03:30;21.70;58.20
17415;DHT22;8825;48.086;16.426;2023-08-30T10:05:58;21.60;57.50
17415;DHT22;8825;48.086;16.426;2023-08-30T10:08:29;21.60;57.40
17415;DHT22;8825;48.086;16.426;2023-08-30T10:10:59;21.40;57.50
17415;DHT22;8825;48.086;16.426;2023-08-30T10:13:26;21.40;57.60
17415;DHT22;8825;48.086;16.426;2023-08-30T10:15:58;21.30;57.80
17415;DHT22;8825;48.086;16.426;2023-08-30T10:18:27;21.20;57.80
17415;DHT22;8825;48.086;16.426;2023-08-30T10:20:55;21.20;58.00
17415;DHT22;8825;48.086;16.426;2023-08-30T10:23:25;21.20;58.20
17415;DHT22;8825;48.086;16.426;2023-08-30T10:25:53;21.20;58.20
17415;DHT22;8825;48.086;16.426;2023-08-30T10:28:23;21.10;58.20
17415;DHT22;8825;48.086;16.426;2023-08-30T10:30:52;21.10;58.20
17415;DHT22;8825;48.086;16.426;2023-08-30T10:33:20;21.00;58.30
17415;DHT22;8825;48.086;16.426;2023-08-30T10:35:49;21.00;58.40
17415;DHT22;8825;48.086;16.426;2023-08-30T10:38:28;20.90;58.50
17415;DHT22;8825;48.086;16.426;2023-08-30T10:41:05;20.90;58.60
17415;DHT22;8825;48.086;16.426;2023-08-30T10:43:33;20.90;58.60
17415;DHT22;8825;48.086;16.426;2023-08-30T10:46:03;20.80;58.60
17415;DHT22;8825;48.086;16.426;2023-08-30T10:48:37;20.70;58.60
17415;DHT22;8825;48.086;16.426;2023-08-30T10:51:16;20.70;58.80
17415;DHT22;8825;48.086;16.426;2023-08-30T10:53:35;20.70;58.90
17415;DHT22;8825;48.086;16.426;2023-08-30T10:56:07;20.60;59.00
17415;DHT22;8825;48.086;16.426;2023-08-30T10:58:43;20.70;59.20
17415;DHT22;8825;48.086;16.426;2023-08-30T11:01:11;20.60;59.20
17415;DHT22;8825;48.086;16.426;2023-08-30T11:03:41;20.60;59.30
17415;DHT22;8825;48.086;16.426;2023-08-30T11:06:15;20.60;59.40
17415;DHT22;8825;48.086;16.426;2023-08-30T11:08:40;20.60;59.50
17415;DHT22;8825;48.086;16.426;2023-08-30T11:11:10;20.60;59.50
17415;DHT22;8825;48.086;16.426;2023-08-30T11:13:40;20.70;59.70
17415;DHT22;8825;48.086;16.426;2023-08-30T11:16:08;20.70;59.60
17415;DHT22;8825;48.086;16.426;2023-08-30T11:18:39;20.80;59.50
17415;DHT22;8825;48.086;16.426;2023-08-30T11:21:08;21.00;59.40
17415;DHT22;8825;48.086;16.426;2023-08-30T11:23:35;21.00;59.30
17415;DHT22;8825;48.086;16.426;2023-08-30T11:26:03;21.10;58.90
17415;DHT22;8825;48.086;16.426;2023-08-30T11:28:30;21.20;58.80
17415;DHT22;8825;48.086;16.426;2023-08-30T11:30:58;21.30;58.80
17415;DHT22;8825;48.086;16.426;2023-08-30T11:33:25;21.40;58.80
17415;DHT22;8825;48.086;16.426;2023-08-30T11:35:53;21.40;58.60
17415;DHT22;8825;48.086;16.426;2023-08-30T11:38:21;21.50;58.40
17415;DHT22;8825;48.086;16.426;2023-08-30T11:40:49;21.50;58.20
17415;DHT22;8825;48.086;16.426;2023-08-30T11:43:17;21.60;58.00
17415;DHT22;8825;48.086;16.426;2023-08-30T11:45:44;21.70;57.80
17415;DHT22;8825;48.086;16.426;2023-08-30T11:48:12;21.80;57.60
17415;DHT22;8825;48.086;16.426;2023-08-30T11:50:41;21.90;57.30
17415;DHT22;8825;48.086;16.426;2023-08-30T11:53:09;22.00;57.10
17415;DHT22;8825;48.086;16.426;2023-08-30T11:55:38;22.10;56.90
17415;DHT22;8825;48.086;16.426;2023-08-30T11:58:05;22.20;56.70
17415;DHT22;8825;48.086;16.426;2023-08-30T12:00:33;22.20;56.50
17415;DHT22;8825;48.086;16.426;2023-08-30T12:03:01;22.10;56.40
17415;DHT22;8825;48.086;16.426;2023-08-30T12:05:28;22.10;56.30
17415;DHT22;8825;48.086;16.426;2023-08-30T12:07:57;22.10;55.90
17415;DHT22;8825;48.086;16.426;2023-08-30T12:10:25;22.10;55.90
17415;DHT22;8825;48.086;16.426;2023-08-30T12:12:52;22.20;56.00
17415;DHT22;8825;48.086;16.426;2023-08-30T12:15:22;22.30;56.10
17415;DHT22;8825;48.086;16.426;2023-08-30T12:17:51;22.40;55.90
17415;DHT22;8825;48.086;16.426;2023-08-30T12:20:19;22.60;55.70
17415;DHT22;8825;48.086;16.426;2023-08-30T12:22:50;22.90;55.20
17415;DHT22;8825;48.086;16.426;2023-08-30T12:25:20;23.00;55.10
17415;DHT22;8825;48.086;16.426;2023-08-30T12:27:49;23.20;54.90
17415;DHT22;8825;48.086;16.426;2023-08-30T12:30:17;23.30;54.60
17415;DHT22;8825;48.086;16.426;2023-08-30T12:32:46;23.50;54.50
17415;DHT22;8825;48.086;16.426;2023-08-30T12:35:14;23.70;54.10
17415;DHT22;8825;48.086;16.426;2023-08-30T12:37:42;23.90;53.80
17415;DHT22;8825;48.086;16.426;2023-08-30T12:40:10;24.00;53.20
17415;DHT22;8825;48.086;16.426;2023-08-30T12:42:38;24.00;53.00
17415;DHT22;8825;48.086;16.426;2023-08-30T12:45:06;24.10;52.90
17415;DHT22;8825;48.086;16.426;2023-08-30T12:47:34;24.20;52.60
17415;DHT22;8825;48.086;16.426;2023-08-30T12:50:01;24.30;52.30
17415;DHT22;8825;48.086;16.426;2023-08-30T12:52:29;24.40;52.10
17415;DHT22;8825;48.086;16.426;2023-08-30T12:54:56;24.50;51.60
17415;DHT22;8825;48.086;16.426;2023-08-30T12:57:24;24.60;51.40
17415;DHT22;8825;48.086;16.426;2023-08-30T12:59:52;24.60;50.90
17415;DHT22;8825;48.086;16.426;2023-08-30T13:02:20;24.60;50.70
17415;DHT22;8825;48.086;16.426;2023-08-30T13:04:47;24.50;50.80
17415;DHT22;8825;48.086;16.426;2023-08-30T13:07:15;24.50;50.60
17415;DHT22;8825;48.086;16.426;2023-08-30T13:09:43;24.30;50.40
17415;DHT22;8825;48.086;16.426;2023-08-30T13:12:11;24.20;50.60
17415;DHT22;8825;48.086;16.426;2023-08-30T13:14:38;24.10;50.70
17415;DHT22;8825;48.086;16.426;2023-08-30T13:17:06;24.00;50.80
17415;DHT22;8825;48.086;16.426;2023-08-30T13:19:33;23.80;50.90
17415;DHT22;8825;48.086;16.426;2023-08-30T13:22:01;23.80;51.10
17415;DHT22;8825;48.086;16.426;2023-08-30T13:24:28;23.70;51.20
17415;DHT22;8825;48.086;16.426;2023-08-30T13:26:58;23.60;51.30
17415;DHT22;8825;48.086;16.426;2023-08-30T13:29:25;23.50;51.40
17415;DHT22;8825;48.086;16.426;2023-08-30T13:31:53;23.40;51.50
17415;DHT22;8825;48.086;16.426;2023-08-30T13:34:20;23.30;51.70
17415;DHT22;8825;48.086;16.426;2023-08-30T13:36:48;23.10;51.90
17415;DHT22;8825;48.086;16.426;2023-08-30T13:39:15;23.10;52.20
17415;DHT22;8825;48.086;16.426;2023-08-30T13:41:43;23.00;52.30
17415;DHT22;8825;48.086;16.426;2023-08-30T13:44:11;22.90;52.30
17415;DHT22;8825;48.086;16.426;2023-08-30T13:46:38;22.80;52.50
17415;DHT22;8825;48.086;16.426;2023-08-30T13:49:06;22.70;52.60
17415;DHT22;8825;48.086;16.426;2023-08-30T13:51:33;22.70;52.80
17415;DHT22;8825;48.086;16.426;2023-08-30T13:54:01;22.70;53.40
17415;DHT22;8825;48.086;16.426;2023-08-30T13:56:29;22.70;52.90
17415;DHT22;8825;48.086;16.426;2023-08-30T13:58:56;22.80;53.10
17415;DHT22;8825;48.086;16.426;2023-08-30T14:01:24;22.90;53.20
17415;DHT22;8825;48.086;16.426;2023-08-30T14:03:51;23.00;53.20
17415;DHT22;8825;48.086;16.426;2023-08-30T14:06:19;23.10;53.10
17415;DHT22;8825;48.086;16.426;2023-08-30T14:08:46;23.20;52.80
17415;DHT22;8825;48.086;16.426;2023-08-30T14:11:14;23.30;52.70
17415;DHT22;8825;48.086;16.426;2023-08-30T14:13:41;23.30;52.50
17415;DHT22;8825;48.086;16.426;2023-08-30T14:16:09;23.20;52.40
17415;DHT22;8825;48.086;16.426;2023-08-30T14:18:36;23.10;52.40
17415;DHT22;8825;48.086;16.426;2023-08-30T14:21:04;23.10;52.40
17415;DHT22;8825;48.086;16.426;2023-08-30T14:23:31;23.00;52.50
17415;DHT22;8825;48.086;16.426;2023-08-30T14:26:06;22.90;52.70
17415;DHT22;8825;48.086;16.426;2023-08-30T14:28:39;22.80;52.60
17415;DHT22;8825;48.086;16.426;2023-08-30T14:31:08;22.70;52.50
17415;DHT22;8825;48.086;16.426;2023-08-30T14:33:36;22.60;52.40
17415;DHT22;8825;48.086;16.426;2023-08-30T14:36:09;22.50;52.70
17415;DHT22;8825;48.086;16.426;2023-08-30T14:38:37;22.50;52.80
17415;DHT22;8825;48.086;16.426;2023-08-30T14:41:04;22.50;52.90
17415;DHT22;8825;48.086;16.426;2023-08-30T14:43:32;22.40;53.00
17415;DHT22;8825;48.086;16.426;2023-08-30T14:46:05;22.40;53.20
17415;DHT22;8825;48.086;16.426;2023-08-30T14:48:33;22.30;53.40
17415;DHT22;8825;48.086;16.426;2023-08-30T14:51:05;22.30;53.60
17415;DHT22;8825;48.086;16.426;2023-08-30T14:53:30;22.20;53.90
17415;DHT22;8825;48.086;16.426;2023-08-30T14:55:58;22.20;54.10
17415;DHT22;8825;48.086;16.426;2023-08-30T14:58:25;22.20;54.30
17415;DHT22;8825;48.086;16.426;2023-08-30T15:00:54;22.20;54.50
17415;DHT22;8825;48.086;16.426;2023-08-30T15:03:21;22.20;54.60
17415;DHT22;8825;48.086;16.426;2023-08-30T15:05:56;22.20;54.70
17415;DHT22;8825;48.086;16.426;2023-08-30T15:08:24;22.20;54.80
17415;DHT22;8825;48.086;16.426;2023-08-30T15:10:51;22.30;54.70
17415;DHT22;8825;48.086;16.426;2023-08-30T15:13:20;22.40;54.50
17415;DHT22;8825;48.086;16.426;2023-08-30T15:15:48;22.50;54.50
17415;DHT22;8825;48.086;16.426;2023-08-30T15:18:15;22.60;54.40
17415;DHT22;8825;48.086;16.426;2023-08-30T15:20:43;22.60;54.30
17415;DHT22;8825;48.086;16.426;2023-08-30T15:23:13;22.60;54.20
17415;DHT22;8825;48.086;16.426;2023-08-30T15:25:48;22.50;54.00
17415;DHT22;8825;48.086;16.426;2023-08-30T15:28:16;22.50;53.90
17415;DHT22;8825;48.086;16.426;2023-08-30T15:30:46;22.50;53.90
17415;DHT22;8825;48.086;16.426;2023-08-30T15:33:15;22.50;53.90
17415;DHT22;8825;48.086;16.426;2023-08-30T15:35:43;22.50;53.80
17415;DHT22;8825;48.086;16.426;2023-08-30T15:38:11;22.50;53.80
17415;DHT22;8825;48.086;16.426;2023-08-30T15:40:40;22.40;53.70
17415;DHT22;8825;48.086;16.426;2023-08-30T15:43:08;22.40;53.70
17415;DHT22;8825;48.086;16.426;2023-08-30T15:45:35;22.30;53.30